Time;durP1;ratioP1;P1;durP2;ratioP2;P2;SDS_P1;SDS_P2;PMS_P1;PMS_P2;Temp;Humidity;BMP_temperature;BMP_pressure;BME280_temperature;BME280_humidity;BME280_pressure;Samples;Min_cycle;Max_cycle;Signal;HPM_P1;HPM_P2
2022/09/23 00:01:01;;;;;;;5.27;2.90;;;5.30;73.30;;;;;;5023440;28;21102;-50
2022/09/23 00:03:28;;;;;;;2.90;2.17;;;5.30;64.60;;;;;;5026939;28;20490;-50
2022/09/23 00:06:00;;;;;;;4.70;2.20;;;5.30;67.60;;;;;;5025429;28;20487;-51
2022/09/23 00:08:26;;;;;;;2.53;2.40;;;5.20;64.60;;;;;;5026418;28;20517;-51
2022/09/23 00:10:54;;;;;;;3.23;2.67;;;5.20;68.90;;;;;;5025972;28;20497;-50
2022/09/23 00:13:21;;;;;;;2.87;2.67;;;5.20;67.40;;;;;;5020843;28;20459;-49
2022/09/23 00:15:47;;;;;;;2.23;2.13;;;5.20;67.30;;;;;;5026582;28;20507;-50
2022/09/23 00:18:16;;;;;;;4.10;2.10;;;5.20;67.70;;;;;;5024865;28;20558;-51
2022/09/23 00:20:43;;;;;;;2.80;2.60;;;5.20;64.80;;;;;;5026655;28;20467;-50
2022/09/23 00:23:10;;;;;;;1.80;1.70;;;5.10;71.00;;;;;;5024522;28;20558;-50
2022/09/23 00:25:36;;;;;;;2.63;2.43;;;5.10;68.40;;;;;;5023187;28;20496;-51
2022/09/23 00:28:03;;;;;;;10.90;2.33;;;5.10;69.80;;;;;;5022267;28;20577;-51
2022/09/23 00:30:29;;;;;;;2.50;2.07;;;5.10;68.10;;;;;;5024577;28;20490;-50
2022/09/23 00:32:56;;;;;;;2.47;2.27;;;5.00;70.00;;;;;;5025004;28;20542;-50
2022/09/23 00:35:24;;;;;;;2.60;2.40;;;5.00;66.80;;;;;;5029638;28;20498;-50
2022/09/23 00:37:51;;;;;;;3.93;2.90;;;5.10;61.30;;;;;;5026580;28;21012;-51
2022/09/23 00:40:17;;;;;;;2.30;2.10;;;5.00;66.20;;;;;;5028829;28;20554;-50
2022/09/23 00:42:50;;;;;;;3.10;2.90;;;5.00;67.30;;;;;;5022714;28;20546;-50
2022/09/23 00:45:17;;;;;;;3.00;2.50;;;5.00;68.80;;;;;;5018212;28;20462;-51
2022/09/23 00:47:48;;;;;;;3.83;2.30;;;5.10;66.30;;;;;;5020848;28;21387;-51
2022/09/23 00:50:22;;;;;;;2.57;2.37;;;5.10;66.30;;;;;;5028001;28;20466;-51
2022/09/23 00:52:52;;;;;;;2.50;2.40;;;5.10;68.90;;;;;;5012207;28;20994;-50
2022/09/23 00:55:24;;;;;;;4.57;2.60;;;4.90;76.00;;;;;;5028616;28;20980;-50
2022/09/23 00:57:53;;;;;;;2.07;1.90;;;4.90;67.40;;;;;;5017923;28;20458;-49
2022/09/23 01:00:20;;;;;;;3.00;2.70;;;5.00;65.60;;;;;;5017739;28;20459;-50
2022/09/23 01:02:46;;;;;;;2.60;2.40;;;5.00;69.90;;;;;;5020628;28;20550;-50
2022/09/23 01:05:14;;;;;;;2.77;2.43;;;5.00;65.20;;;;;;5016807;28;20551;-51
2022/09/23 01:07:40;;;;;;;2.67;2.47;;;5.00;74.40;;;;;;5026148;28;20478;-50
2022/09/23 01:10:10;;;;;;;2.70;2.50;;;4.90;75.50;;;;;;5021083;28;20510;-50
2022/09/23 01:12:54;;;;;;;2.40;2.20;;;4.90;74.00;;;;;;5024431;28;20556;-51
2022/09/23 01:15:25;;;;;;;2.87;2.67;;;4.80;77.90;;;;;;5022040;28;20538;-50
2022/09/23 01:18:01;;;;;;;2.90;2.33;;;4.80;76.40;;;;;;5022415;28;20570;-48
2022/09/23 01:21:02;;;;;;;6.83;2.60;;;4.80;72.10;;;;;;5021498;28;20560;-48
2022/09/23 01:24:01;;;;;;;4.80;2.60;;;4.80;73.80;;;;;;5021109;28;20464;-48
2022/09/23 01:26:55;;;;;;;2.80;2.60;;;4.80;67.80;;;;;;5021975;28;20475;-47
2022/09/23 01:29:55;;;;;;;3.73;3.27;;;4.80;69.00;;;;;;5023697;28;20491;-47
2022/09/23 01:32:35;;;;;;;2.43;2.23;;;4.80;75.80;;;;;;5026318;28;20549;-48
2022/09/23 01:35:07;;;;;;;3.43;3.13;;;4.80;71.40;;;;;;5025486;28;20823;-47
2022/09/23 01:37:40;;;;;;;2.83;2.63;;;4.70;81.20;;;;;;5020963;28;20475;-48
2022/09/23 01:40:14;;;;;;;2.93;2.73;;;4.60;80.40;;;;;;5028162;28;21057;-48
2022/09/23 01:42:45;;;;;;;2.70;2.50;;;4.60;79.60;;;;;;5027848;28;20543;-46
2022/09/23 01:45:19;;;;;;;3.63;2.43;;;4.60;79.40;;;;;;5025964;28;20980;-47
2022/09/23 01:47:51;;;;;;;2.47;2.37;;;4.60;77.40;;;;;;5023867;28;20487;-49
2022/09/23 01:53:06;;;;;;;2.63;2.43;;;4.70;63.30;;;;;;5012968;28;21053;-47
2022/09/23 01:55:40;;;;;;;2.77;2.57;;;4.70;76.00;;;;;;5031839;28;20884;-47
2022/09/23 01:58:10;;;;;;;3.00;2.80;;;4.60;73.90;;;;;;5025184;28;20551;-49
2022/09/23 02:00:41;;;;;;;3.10;2.60;;;4.60;74.90;;;;;;5027582;28;20458;-49
2022/09/23 02:03:14;;;;;;;2.83;2.63;;;4.60;79.10;;;;;;5027364;28;20575;-48
2022/09/23 02:05:46;;;;;;;2.40;2.20;;;4.50;75.30;;;;;;5024700;28;20554;-49
2022/09/23 02:08:17;;;;;;;2.77;2.53;;;4.50;70.40;;;;;;5032617;28;20517;-49
2022/09/23 02:10:47;;;;;;;2.03;1.93;;;4.50;65.00;;;;;;5027749;28;20546;-49
2022/09/23 02:13:17;;;;;;;2.47;2.27;;;4.50;71.30;;;;;;5026929;28;20916;-49
2022/09/23 02:15:49;;;;;;;2.97;2.77;;;4.60;68.50;;;;;;5026303;28;20568;-49
2022/09/23 02:18:21;;;;;;;9.13;2.80;;;4.50;80.30;;;;;;5028866;28;21036;-49
2022/09/23 02:20:52;;;;;;;2.77;2.57;;;4.40;77.50;;;;;;5028594;28;20570;-48
2022/09/23 02:23:24;;;;;;;2.90;2.60;;;4.50;77.60;;;;;;5030155;28;20622;-49
2022/09/23 02:25:57;;;;;;;2.40;2.30;;;4.50;72.90;;;;;;5027585;28;20610;-48
2022/09/23 02:28:32;;;;;;;4.63;2.47;;;4.50;78.90;;;;;;5025454;28;20553;-49
2022/09/23 02:31:07;;;;;;;3.10;2.90;;;4.50;80.00;;;;;;5021582;28;20459;-49
2022/09/23 02:33:39;;;;;;;10.73;2.60;;;4.40;82.80;;;;;;5024064;28;20466;-48
2022/09/23 02:36:10;;;;;;;2.77;2.47;;;4.40;77.50;;;;;;5024044;28;20487;-49
2022/09/23 02:38:42;;;;;;;2.90;2.20;;;4.40;71.80;;;;;;5031128;28;20534;-48
2022/09/23 02:41:14;;;;;;;2.97;2.73;;;4.30;78.50;;;;;;5028506;28;20462;-49
2022/09/23 02:43:46;;;;;;;4.47;2.57;;;4.40;69.00;;;;;;5024785;28;20469;-49
2022/09/23 02:46:13;;;;;;;2.80;2.60;;;4.40;71.60;;;;;;5028056;28;20899;-49
2022/09/23 02:48:46;;;;;;;6.13;2.63;;;4.30;73.40;;;;;;5025879;28;20573;-49
2022/09/23 02:51:13;;;;;;;3.13;2.33;;;4.30;79.00;;;;;;5024428;28;20538;-48
2022/09/23 02:53:40;;;;;;;6.00;2.57;;;4.30;70.70;;;;;;5025676;28;20554;-49
2022/09/23 02:56:15;;;;;;;2.80;2.60;;;4.30;76.40;;;;;;5027759;28;20569;-49
2022/09/23 02:58:41;;;;;;;2.93;2.60;;;4.30;77.70;;;;;;5028272;28;20458;-49
2022/09/23 03:01:17;;;;;;;3.33;2.60;;;4.30;74.40;;;;;;5025706;28;20547;-48
2022/09/23 03:03:49;;;;;;;2.53;2.33;;;4.30;78.50;;;;;;5024055;28;20881;-48
2022/09/23 03:06:25;;;;;;;2.90;2.70;;;4.10;88.90;;;;;;5034992;28;20655;-49
2022/09/23 03:08:57;;;;;;;2.90;2.70;;;4.00;89.60;;;;;;5024885;28;20921;-50
2022/09/23 03:11:24;;;;;;;3.23;3.00;;;4.00;86.60;;;;;;5021498;28;20548;-48
2022/09/23 03:14:05;;;;;;;10.10;3.37;;;4.00;84.10;;;;;;5025340;28;20470;-49
2022/09/23 03:16:39;;;;;;;3.10;2.90;;;3.90;84.70;;;;;;5025419;28;20486;-49
2022/09/23 03:19:23;;;;;;;3.17;2.80;;;3.90;82.50;;;;;;5026832;28;20558;-48
2022/09/23 03:21:59;;;;;;;3.20;2.50;;;3.90;82.10;;;;;;5023606;28;20544;-49
2022/09/23 03:24:30;;;;;;;2.70;2.60;;;3.90;80.90;;;;;;5022163;28;21030;-49
2022/09/23 03:27:00;;;;;;;3.50;2.70;;;3.90;83.40;;;;;;5023702;28;20478;-49
2022/09/23 03:29:27;;;;;;;2.33;2.13;;;3.80;84.10;;;;;;5027994;28;20603;-49
2022/09/23 03:31:55;;;;;;;2.70;2.60;;;3.80;86.30;;;;;;5024990;28;20471;-49
2022/09/23 03:34:28;;;;;;;2.47;2.27;;;3.70;85.30;;;;;;5020528;28;20553;-49
2022/09/23 03:37:00;;;;;;;2.40;2.30;;;3.80;75.70;;;;;;5026226;28;20482;-48
2022/09/23 03:39:32;;;;;;;4.33;2.40;;;3.80;72.40;;;;;;5019063;28;20462;-49
2022/09/23 03:42:03;;;;;;;2.77;2.57;;;3.80;71.90;;;;;;5016666;28;21707;-48
2022/09/23 03:44:30;;;;;;;3.50;2.90;;;3.90;67.70;;;;;;5028114;28;20541;-49
2022/09/23 03:46:59;;;;;;;2.30;2.10;;;3.90;69.40;;;;;;5024901;28;21000;-49
2022/09/23 03:49:31;;;;;;;2.93;2.73;;;3.80;76.40;;;;;;5019753;28;20573;-48
2022/09/23 03:52:00;;;;;;;2.80;2.70;;;3.90;76.60;;;;;;5023537;28;20478;-49
2022/09/23 03:54:28;;;;;;;2.73;2.53;;;3.90;78.80;;;;;;5019919;28;20462;-48
2022/09/23 03:56:57;;;;;;;3.53;2.60;;;3.80;75.80;;;;;;5022463;28;20490;-49
2022/09/23 03:59:23;;;;;;;3.00;2.80;;;3.80;70.40;;;;;;5024017;28;20455;-49
2022/09/23 04:01:50;;;;;;;9.70;2.73;;;3.70;82.20;;;;;;5020043;28;20591;-49
2022/09/23 04:04:16;;;;;;;7.73;2.90;;;3.80;75.50;;;;;;5020937;28;20455;-49
2022/09/23 04:06:45;;;;;;;3.33;3.03;;;3.80;72.10;;;;;;5029221;28;20594;-49
2022/09/23 04:09:11;;;;;;;2.40;2.17;;;3.80;77.00;;;;;;5027278;28;20497;-49
2022/09/23 04:11:38;;;;;;;2.50;2.33;;;3.70;70.20;;;;;;5023148;28;20909;-49
2022/09/23 04:14:05;;;;;;;7.13;2.70;;;3.80;70.90;;;;;;5021597;28;20510;-49
2022/09/23 04:16:31;;;;;;;3.20;3.00;;;3.80;70.30;;;;;;5024161;28;20490;-49
2022/09/23 04:18:58;;;;;;;3.37;2.90;;;3.70;79.40;;;;;;5022077;28;20558;-49
2022/09/23 04:21:25;;;;;;;3.07;2.87;;;3.90;67.40;;;;;;5020938;28;20455;-48
2022/09/23 04:23:53;;;;;;;7.50;3.07;;;3.70;82.90;;;;;;5023919;28;20466;-49
2022/09/23 04:26:19;;;;;;;3.07;2.87;;;3.70;80.80;;;;;;5022848;28;20501;-48
2022/09/23 04:28:46;;;;;;;2.80;2.60;;;3.70;76.70;;;;;;5023741;28;21059;-49
2022/09/23 04:31:12;;;;;;;2.90;2.70;;;3.70;76.80;;;;;;5030804;28;20545;-48
2022/09/23 04:33:39;;;;;;;2.67;2.50;;;3.70;79.10;;;;;;5025725;28;20541;-49
2022/09/23 04:36:06;;;;;;;2.80;2.70;;;3.60;84.80;;;;;;5022086;28;20489;-49
2022/09/23 04:38:32;;;;;;;3.30;2.73;;;3.60;84.10;;;;;;5028154;28;20511;-48
2022/09/23 04:41:00;;;;;;;3.17;2.87;;;3.60;76.40;;;;;;5020628;28;20522;-48
2022/09/23 04:43:27;;;;;;;8.10;5.50;;;3.60;72.10;;;;;;5018274;28;20491;-49
2022/09/23 04:46:01;;;;;;;18.33;8.97;;;3.60;80.60;;;;;;5020592;28;20613;-49
2022/09/23 04:48:28;;;;;;;5.67;5.20;;;3.50;85.20;;;;;;5026055;28;20549;-49
2022/09/23 04:50:54;;;;;;;4.50;4.10;;;3.40;88.20;;;;;;5014374;28;20520;-48
2022/09/23 04:53:21;;;;;;;4.00;3.60;;;3.40;87.30;;;;;;5015855;28;20577;-48
2022/09/23 04:55:48;;;;;;;3.53;3.30;;;3.40;86.30;;;;;;5017523;28;20495;-49
2022/09/23 04:58:16;;;;;;;5.37;2.90;;;3.50;78.00;;;;;;5025107;28;20983;-49
2022/09/23 05:00:43;;;;;;;3.00;2.50;;;3.60;61.50;;;;;;5028066;28;20490;-49
2022/09/23 05:03:10;;;;;;;4.33;3.40;;;3.60;72.70;;;;;;5025853;28;20464;-51
2022/09/23 05:05:36;;;;;;;3.40;2.97;;;3.60;67.60;;;;;;5028540;28;20465;-49
2022/09/23 05:08:03;;;;;;;4.40;2.97;;;3.70;71.30;;;;;;5032819;28;21029;-50
2022/09/23 05:10:30;;;;;;;2.90;2.70;;;3.70;73.10;;;;;;5027748;28;21016;-49
2022/09/23 05:12:57;;;;;;;3.33;3.03;;;3.70;71.60;;;;;;5024678;28;20455;-48
2022/09/23 05:15:25;;;;;;;3.20;3.00;;;3.70;73.70;;;;;;5020418;28;20559;-49
2022/09/23 05:17:52;;;;;;;6.20;3.40;;;3.80;67.40;;;;;;5022152;28;20479;-49
2022/09/23 05:20:19;;;;;;;3.43;2.63;;;3.80;70.50;;;;;;5015758;28;20459;-50
2022/09/23 05:22:46;;;;;;;5.50;3.10;;;3.80;68.80;;;;;;5018819;28;21082;-49
2022/09/23 05:25:12;;;;;;;3.50;3.30;;;3.80;78.30;;;;;;5022936;28;20459;-49
2022/09/23 05:27:39;;;;;;;2.77;2.60;;;3.70;77.80;;;;;;5033044;28;21051;-49
2022/09/23 05:30:06;;;;;;;3.40;3.10;;;3.70;84.10;;;;;;5031806;28;20477;-49
2022/09/23 05:32:34;;;;;;;3.80;3.20;;;3.70;85.60;;;;;;5023088;28;20490;-49
2022/09/23 05:35:01;;;;;;;4.87;3.10;;;3.70;82.40;;;;;;5033387;28;20557;-49
2022/09/23 05:37:28;;;;;;;3.50;3.20;;;3.80;80.00;;;;;;5023555;28;20490;-48
2022/09/23 05:39:54;;;;;;;3.10;2.90;;;3.80;71.70;;;;;;5024570;28;20455;-48
2022/09/23 05:42:21;;;;;;;3.00;2.80;;;3.80;63.40;;;;;;5025501;28;20490;-49
2022/09/23 05:44:47;;;;;;;3.03;2.80;;;3.90;68.60;;;;;;5023594;28;20455;-49
2022/09/23 05:47:14;;;;;;;3.20;2.90;;;3.90;63.90;;;;;;5024523;28;20986;-48
2022/09/23 05:49:42;;;;;;;3.30;2.80;;;4.00;60.60;;;;;;5029876;28;20540;-49
2022/09/23 05:52:08;;;;;;;7.63;2.93;;;4.20;63.20;;;;;;5024652;28;20546;-48
2022/09/23 05:54:35;;;;;;;2.70;2.50;;;4.20;71.30;;;;;;5022719;28;20541;-48
2022/09/23 05:57:02;;;;;;;3.70;2.93;;;4.30;71.70;;;;;;5024312;28;20482;-49
2022/09/23 05:59:28;;;;;;;6.27;3.23;;;4.30;71.40;;;;;;5022820;28;20552;-48
2022/09/23 06:01:55;;;;;;;3.07;2.87;;;4.40;73.80;;;;;;5022578;28;20485;-48
2022/09/23 06:04:22;;;;;;;3.73;3.40;;;4.40;70.70;;;;;;5022632;28;20459;-48
2022/09/23 06:06:50;;;;;;;6.43;3.93;;;4.50;71.30;;;;;;5021445;28;20563;-48
2022/09/23 06:09:16;;;;;;;3.47;3.20;;;4.50;68.90;;;;;;5020482;28;20538;-48
2022/09/23 06:11:43;;;;;;;3.93;3.63;;;4.60;66.60;;;;;;5023756;28;20459;-48
2022/09/23 06:14:12;;;;;;;3.97;3.50;;;4.70;66.80;;;;;;5017182;28;20574;-48
2022/09/23 06:16:39;;;;;;;8.03;3.13;;;4.80;66.30;;;;;;5018043;28;20487;-49
2022/09/23 06:19:05;;;;;;;3.90;2.87;;;4.80;63.70;;;;;;5017824;28;20545;-48
2022/09/23 06:21:33;;;;;;;6.10;3.87;;;4.90;61.70;;;;;;5020524;28;20454;-48
2022/09/23 06:24:01;;;;;;;3.60;3.30;;;5.10;55.50;;;;;;5018492;28;20559;-49
2022/09/23 06:26:32;;;;;;;4.67;3.27;;;5.20;53.20;;;;;;5026657;28;20497;-48
2022/09/23 06:29:01;;;;;;;4.37;3.97;;;5.30;50.40;;;;;;5024601;28;20516;-49
2022/09/23 06:31:27;;;;;;;6.60;4.77;;;5.40;47.00;;;;;;5029987;28;20479;-48
2022/09/23 06:33:54;;;;;;;8.33;5.37;;;5.50;47.70;;;;;;5031779;28;20971;-48
2022/09/23 06:36:20;;;;;;;12.87;4.70;;;5.70;46.10;;;;;;5024153;28;21860;-48
2022/09/23 06:38:48;;;;;;;5.73;3.70;;;5.80;44.40;;;;;;5030623;28;20545;-48
2022/09/23 06:41:16;;;;;;;5.50;4.53;;;6.00;42.50;;;;;;5024619;28;20455;-48
2022/09/23 06:43:42;;;;;;;6.37;4.53;;;6.20;35.90;;;;;;5020483;28;20571;-48
2022/09/23 06:46:11;;;;;;;5.07;4.67;;;6.40;35.30;;;;;;5036645;28;20484;-49
2022/09/23 06:48:37;;;;;;;10.67;6.07;;;6.50;34.50;;;;;;5019023;28;20555;-48
2022/09/23 06:51:06;;;;;;;12.53;7.73;;;6.70;33.70;;;;;;5017664;28;20483;-48
2022/09/23 06:53:33;;;;;;;7.20;5.57;;;6.80;33.20;;;;;;5017617;28;20455;-48
2022/09/23 06:56:01;;;;;;;27.33;10.37;;;7.10;30.60;;;;;;5016672;28;20821;-48
2022/09/23 06:58:29;;;;;;;12.27;6.70;;;7.20;29.10;;;;;;5024215;28;20455;-49
2022/09/23 07:01:01;;;;;;;13.23;6.77;;;7.40;30.40;;;;;;5031813;28;20582;-48
2022/09/23 07:03:27;;;;;;;42.93;13.67;;;7.70;31.10;;;;;;5016804;28;20459;-48
2022/09/23 07:05:54;;;;;;;57.00;20.50;;;7.80;34.70;;;;;;5021278;28;20475;-48
2022/09/23 07:08:21;;;;;;;64.73;23.37;;;8.00;38.70;;;;;;5021166;28;20996;-49
2022/09/23 07:10:51;;;;;;;27.53;11.73;;;8.10;41.80;;;;;;5021659;28;20570;-49
2022/09/23 07:13:18;;;;;;;7.63;6.03;;;8.30;44.20;;;;;;5025620;28;20470;-49
2022/09/23 07:15:50;;;;;;;11.57;6.40;;;8.40;47.10;;;;;;5021895;28;20839;-49
2022/09/23 07:18:17;;;;;;;6.80;4.60;;;8.60;51.80;;;;;;5023073;28;20536;-49
2022/09/23 07:20:44;;;;;;;7.03;4.17;;;8.80;61.70;;;;;;5019953;28;20541;-51
2022/09/23 07:23:11;;;;;;;6.80;4.63;;;9.00;71.20;;;;;;5027505;28;20455;-48
2022/09/23 07:25:37;;;;;;;4.70;3.77;;;9.20;96.30;;;;;;5035244;28;20553;-49
2022/09/23 07:28:05;;;;;;;5.13;4.40;;;9.40;99.90;;;;;;5028634;28;20562;-48
2022/09/23 07:30:32;;;;;;;5.37;4.07;;;9.60;99.90;;;;;;5017611;28;20565;-48
2022/09/23 07:32:59;;;;;;;6.30;4.83;;;9.80;99.90;;;;;;5036889;28;20544;-49
2022/09/23 07:35:26;;;;;;;8.70;4.57;;;9.90;99.90;;;;;;5027237;28;20557;-49
2022/09/23 07:37:53;;;;;;;4.00;3.67;;;10.00;99.90;;;;;;5022271;28;20962;-48
2022/09/23 07:40:20;;;;;;;6.57;4.20;;;10.10;99.90;;;;;;5022694;28;20550;-49
2022/09/23 07:42:46;;;;;;;7.40;4.30;;;10.30;99.90;;;;;;5028683;28;20558;-49
2022/09/23 07:45:13;;;;;;;6.30;4.10;;;10.50;99.90;;;;;;5036895;28;20493;-49
2022/09/23 07:47:40;;;;;;;7.57;4.53;;;10.60;99.90;;;;;;5025676;28;20475;-49
2022/09/23 07:50:10;;;;;;;6.83;3.90;;;10.70;99.90;;;;;;5030943;28;20573;-48
2022/09/23 07:52:37;;;;;;;9.00;4.33;;;10.90;99.90;;;;;;5020396;28;20486;-49
2022/09/23 07:55:04;;;;;;;6.20;3.90;;;11.00;99.90;;;;;;5029799;28;20486;-49
2022/09/23 07:57:32;;;;;;;3.20;3.00;;;11.10;99.90;;;;;;5028369;28;20561;-48
2022/09/23 07:59:59;;;;;;;7.80;3.60;;;11.30;99.90;;;;;;5022348;28;20957;-48
2022/09/23 08:02:25;;;;;;;4.83;4.03;;;11.30;99.90;;;;;;5020676;28;20586;-48
2022/09/23 08:04:52;;;;;;;6.20;3.50;;;11.40;99.90;;;;;;5017765;28;20458;-49
2022/09/23 08:07:20;;;;;;;7.83;3.70;;;11.60;99.90;;;;;;5014715;28;20479;-48
2022/09/23 08:09:46;;;;;;;3.67;3.20;;;11.70;99.90;;;;;;5023389;28;21080;-49
2022/09/23 08:12:16;;;;;;;5.33;3.77;;;11.80;99.90;;;;;;5017154;28;20891;-48
2022/09/23 08:14:43;;;;;;;7.70;4.90;;;12.00;99.90;;;;;;5022931;28;20907;-48
2022/09/23 08:17:11;;;;;;;4.17;3.80;;;12.00;27.90;;;;;;5028160;28;20928;-48
2022/09/23 08:19:38;;;;;;;3.43;3.17;;;12.20;33.70;;;;;;5026483;28;20900;-49
2022/09/23 08:22:04;;;;;;;8.30;4.00;;;12.30;30.80;;;;;;5023544;28;20538;-49
2022/09/23 08:24:32;;;;;;;12.03;3.70;;;12.30;29.70;;;;;;5033056;28;20549;-49
2022/09/23 08:26:59;;;;;;;4.23;3.07;;;12.40;24.60;;;;;;5023878;28;21088;-49
2022/09/23 08:29:26;;;;;;;5.70;4.20;;;12.50;28.00;;;;;;5033426;28;20979;-48
2022/09/23 08:31:53;;;;;;;3.83;3.40;;;12.60;23.70;;;;;;5017833;28;20486;-48
2022/09/23 08:34:22;;;;;;;6.10;3.80;;;12.70;26.60;;;;;;5027921;28;20553;-48
2022/09/23 08:36:49;;;;;;;12.20;3.87;;;12.90;27.50;;;;;;5019268;28;20510;-48
2022/09/23 08:39:17;;;;;;;5.47;3.63;;;13.00;34.80;;;;;;5025927;28;20906;-49
2022/09/23 08:41:52;;;;;;;14.70;4.67;;;13.20;36.00;;;;;;5028710;28;20666;-48
2022/09/23 08:44:24;;;;;;;3.97;3.20;;;13.30;34.50;;;;;;5036396;28;20461;-49
2022/09/23 08:46:54;;;;;;;9.73;4.40;;;13.40;42.20;;;;;;5036937;28;20566;-49
2022/09/23 08:49:27;;;;;;;4.53;3.93;;;13.50;57.20;;;;;;5030480;28;20566;-48
2022/09/23 08:51:55;;;;;;;4.57;4.13;;;13.60;60.10;;;;;;5017482;28;20475;-48
2022/09/23 08:54:25;;;;;;;8.33;4.03;;;13.70;61.60;;;;;;5020736;28;20474;-47
2022/09/23 08:56:57;;;;;;;7.33;4.50;;;13.70;68.50;;;;;;5025016;28;20487;-48
2022/09/23 08:59:31;;;;;;;6.30;4.40;;;13.90;63.70;;;;;;5020604;28;20466;-49
2022/09/23 09:02:00;;;;;;;4.77;4.33;;;14.10;65.80;;;;;;5025703;28;21063;-48
2022/09/23 09:04:38;;;;;;;4.10;3.80;;;14.10;70.30;;;;;;5021454;28;20491;-48
2022/09/23 09:07:14;;;;;;;4.63;3.80;;;14.10;71.00;;;;;;5020816;28;20478;-48
2022/09/23 09:09:45;;;;;;;4.33;3.90;;;14.20;71.00;;;;;;5016015;28;20996;-49
2022/09/23 09:12:17;;;;;;;5.00;3.50;;;14.40;85.60;;;;;;5021116;28;20486;-48
2022/09/23 09:14:51;;;;;;;6.70;3.80;;;14.50;80.20;;;;;;5030656;28;20902;-49
2022/09/23 09:17:25;;;;;;;5.10;3.20;;;14.50;94.80;;;;;;5027727;28;20516;-48
2022/09/23 09:19:56;;;;;;;3.30;3.00;;;14.60;96.50;;;;;;5027894;28;20609;-48
2022/09/23 09:22:40;;;;;;;4.07;3.37;;;14.70;99.90;;;;;;5028346;28;20549;-49
2022/09/23 09:25:19;;;;;;;5.97;5.37;;;14.80;99.90;;;;;;5028542;28;20942;-49
2022/09/23 09:27:48;;;;;;;3.50;3.20;;;14.80;99.90;;;;;;5030458;28;20561;-49
2022/09/23 09:30:15;;;;;;;5.20;3.13;;;14.80;99.90;;;;;;5028332;28;20462;-49
2022/09/23 09:32:47;;;;;;;7.73;4.13;;;14.90;99.90;;;;;;5026648;28;20569;-48
2022/09/23 09:35:25;;;;;;;8.30;3.37;;;14.90;99.90;;;;;;5036845;28;20541;-48
2022/09/23 09:37:51;;;;;;;4.40;2.87;;;15.00;99.90;;;;;;5026046;28;20542;-48
2022/09/23 09:40:19;;;;;;;13.00;3.70;;;15.10;99.90;;;;;;5022314;28;20569;-49
2022/09/23 09:42:49;;;;;;;5.13;3.00;;;15.20;99.90;;;;;;5023530;28;20454;-48
2022/09/23 09:45:23;;;;;;;3.33;3.13;;;15.20;99.90;;;;;;5018215;28;20462;-49
2022/09/23 09:47:59;;;;;;;4.93;3.57;;;15.10;99.90;;;;;;5028993;28;20505;-49
2022/09/23 09:50:44;;;;;;;2.93;2.73;;;15.20;99.90;;;;;;5028673;28;20983;-50
2022/09/23 09:53:22;;;;;;;3.43;3.23;;;15.10;99.90;;;;;;5041765;28;20530;-50
2022/09/23 09:55:59;;;;;;;10.83;3.97;;;15.20;99.90;;;;;;5022398;28;20481;-48
2022/09/23 09:58:30;;;;;;;3.20;2.80;;;15.30;99.90;;;;;;5024917;28;20466;-49
2022/09/23 10:00:57;;;;;;;3.27;2.67;;;15.50;99.90;;;;;;5015446;28;20488;-48
2022/09/23 10:03:39;;;;;;;3.30;2.47;;;15.50;99.90;;;;;;5026934;28;20794;-49
2022/09/23 10:06:19;;;;;;;2.60;2.43;;;15.50;99.90;;;;;;5024103;28;20621;-49
2022/09/23 10:09:13;;;;;;;2.00;1.90;;;15.50;99.90;;;;;;5026140;28;20470;-49
2022/09/23 10:11:41;;;;;;;2.03;1.83;;;15.50;99.90;;;;;;5025010;28;20970;-48
2022/09/23 10:14:16;;;;;;;2.10;1.90;;;15.60;99.90;;;;;;5029741;28;20547;-49
2022/09/23 10:16:43;;;;;;;2.50;1.77;;;15.50;99.90;;;;;;5018727;28;20572;-49
2022/09/23 10:19:22;;;;;;;1.87;1.77;;;15.50;99.90;;;;;;5021966;28;20459;-48
2022/09/23 10:21:53;;;;;;;1.80;1.70;;;15.60;99.90;;;;;;5020684;28;20861;-48
2022/09/23 10:24:23;;;;;;;3.07;1.27;;;15.60;99.90;;;;;;5022143;28;20466;-49
2022/09/23 10:26:56;;;;;;;1.37;1.37;;;15.60;99.90;;;;;;5029476;28;20910;-49
2022/09/23 10:29:29;;;;;;;2.33;2.03;;;15.60;99.90;;;;;;5034388;28;20524;-48
2022/09/23 10:32:20;;;;;;;1.70;1.60;;;15.60;99.90;;;;;;5029499;28;20575;-48
2022/09/23 10:34:51;;;;;;;2.17;2.00;;;15.60;99.90;;;;;;5028892;28;20547;-49
2022/09/23 10:37:29;;;;;;;1.50;1.40;;;15.60;99.90;;;;;;5028181;28;20561;-48
2022/09/23 10:48:35;;;;;;;1.50;1.40;;;15.60;99.90;;;;;;5025429;28;20457;-48
2022/09/23 10:51:07;;;;;;;3.13;1.50;;;15.60;99.90;;;;;;5024190;28;20463;-48
2022/09/23 10:53:48;;;;;;;1.57;1.47;;;15.50;99.90;;;;;;5034014;28;20574;-48
2022/09/23 10:56:23;;;;;;;1.90;1.80;;;15.50;99.90;;;;;;5024474;28;20483;-49
2022/09/23 10:59:10;;;;;;;11.20;2.93;;;15.50;99.90;;;;;;5032737;28;20540;-49
2022/09/23 11:01:49;;;;;;;1.33;1.33;;;15.50;99.90;;;;;;5028047;28;20578;-49
2022/09/23 11:04:54;;;;;;;4.70;1.60;;;15.50;99.90;;;;;;5017343;28;20546;-47
2022/09/23 11:07:25;;;;;;;2.90;2.13;;;15.40;99.90;;;;;;5026785;28;21079;-47
2022/09/23 11:10:12;;;;;;;2.93;1.60;;;15.50;99.90;;;;;;5027359;28;20459;-47
2022/09/23 11:12:49;;;;;;;2.13;1.93;;;15.50;99.90;;;;;;5021431;28;20490;-46
2022/09/23 11:15:30;;;;;;;3.33;1.50;;;15.50;99.90;;;;;;5027205;28;20559;-47
2022/09/23 11:18:25;;;;;;;3.03;1.83;;;15.60;99.90;;;;;;5020082;28;20976;-48
2022/09/23 11:21:03;;;;;;;1.50;1.40;;;15.60;99.90;;;;;;5017704;28;20467;-47
2022/09/23 11:23:51;;;;;;;2.70;2.00;;;15.60;99.90;;;;;;5028061;28;20454;-48
2022/09/23 11:26:32;;;;;;;2.07;1.97;;;15.60;99.90;;;;;;5024038;28;20557;-48
2022/09/23 11:29:33;;;;;;;3.90;1.67;;;15.60;99.90;;;;;;5034526;28;20470;-47
2022/09/23 11:32:13;;;;;;;6.00;1.83;;;15.60;99.90;;;;;;5023345;28;20533;-47
2022/09/23 11:35:02;;;;;;;1.93;1.73;;;15.70;99.90;;;;;;5020018;28;20919;-46
2022/09/23 11:37:33;;;;;;;1.33;1.20;;;15.70;99.90;;;;;;5016050;28;20485;-48
2022/09/23 11:40:04;;;;;;;2.20;2.10;;;15.70;99.90;;;;;;5029852;28;21024;-48
2022/09/23 11:42:35;;;;;;;2.50;1.43;;;15.80;99.90;;;;;;5026654;28;20454;-48
2022/09/23 11:45:12;;;;;;;2.70;2.60;;;15.70;99.90;;;;;;5029458;28;20546;-48
2022/09/23 11:47:45;;;;;;;2.17;2.07;;;15.70;99.90;;;;;;5013587;28;20514;-47
2022/09/23 11:50:26;;;;;;;2.20;1.90;;;15.80;99.90;;;;;;5016321;28;20972;-48
2022/09/23 11:52:57;;;;;;;2.13;1.73;;;15.80;99.90;;;;;;5018206;28;20489;-49
2022/09/23 11:55:31;;;;;;;1.97;1.77;;;15.80;99.90;;;;;;5021213;28;20462;-48
2022/09/23 11:58:03;;;;;;;1.77;1.67;;;15.80;99.90;;;;;;5014622;28;20566;-47
2022/09/23 12:00:33;;;;;;;1.83;1.73;;;15.80;99.90;;;;;;5022671;28;20548;-47
2022/09/23 12:03:08;;;;;;;1.93;1.87;;;15.70;99.90;;;;;;5025999;28;20524;-47
2022/09/23 12:05:39;;;;;;;1.80;1.70;;;15.70;99.90;;;;;;5019561;28;20557;-47
2022/09/23 12:08:14;;;;;;;6.43;1.87;;;15.80;99.90;;;;;;5021046;28;20495;-47
2022/09/23 12:10:52;;;;;;;1.93;1.73;;;15.80;99.90;;;;;;5020081;28;20458;-47
2022/09/23 12:13:24;;;;;;;1.63;1.53;;;15.90;99.90;;;;;;5017965;28;20485;-47
2022/09/23 12:16:04;;;;;;;1.70;1.60;;;16.00;99.90;;;;;;5017076;28;20516;-48
2022/09/23 12:18:41;;;;;;;4.03;3.00;;;16.10;99.90;;;;;;5021357;28;20453;-47
2022/09/23 12:21:31;;;;;;;5.27;2.07;;;16.20;99.90;;;;;;5019658;28;20455;-46
2022/09/23 12:24:13;;;;;;;3.10;2.37;;;16.20;99.90;;;;;;5021344;28;20558;-47
2022/09/23 12:26:40;;;;;;;1.80;1.70;;;16.20;99.90;;;;;;5021262;28;20486;-47
2022/09/23 12:29:10;;;;;;;1.47;1.37;;;16.30;99.90;;;;;;5027907;28;20508;-47
2022/09/23 12:31:38;;;;;;;5.10;1.63;;;16.30;99.90;;;;;;5026587;28;20486;-47
2022/09/23 12:34:21;;;;;;;4.90;2.00;;;16.40;99.90;;;;;;5016909;28;20583;-47
2022/09/23 12:36:49;;;;;;;1.57;1.47;;;16.40;99.90;;;;;;5028858;28;20520;-46
2022/09/23 12:39:18;;;;;;;1.80;1.70;;;16.40;99.90;;;;;;5029824;28;20537;-46
2022/09/23 12:41:48;;;;;;;1.53;1.40;;;16.50;99.90;;;;;;5025571;28;20558;-46
2022/09/23 12:44:30;;;;;;;1.87;1.77;;;16.50;99.90;;;;;;5026551;28;20463;-47
2022/09/23 12:47:36;;;;;;;1.73;1.33;;;16.50;99.90;;;;;;5018090;28;20485;-46
2022/09/23 12:50:51;;;;;;;1.60;1.50;;;16.50;99.90;;;;;;4940918;28;20472;-47
2022/09/23 12:53:51;;;;;;;1.23;1.13;;;16.60;99.90;;;;;;5022484;28;20565;-47
2022/09/23 12:56:20;;;;;;;1.50;1.40;;;16.80;99.90;;;;;;5027253;28;20502;-47
2022/09/23 12:59:21;;;;;;;2.73;1.30;;;16.80;1.40;;;;;;5015462;28;20558;-47
2022/09/23 13:01:47;;;;;;;1.80;1.70;;;16.90;99.90;;;;;;5024162;28;20546;-47
2022/09/23 13:07:22;;;;;;;3.03;1.50;;;17.00;99.90;;;;;;5019437;28;20473;-47
2022/09/23 13:09:52;;;;;;;1.93;1.50;;;17.00;99.90;;;;;;5033236;28;20459;-49
2022/09/23 13:12:25;;;;;;;1.37;1.27;;;17.20;99.90;;;;;;5022778;28;21095;-47
2022/09/23 13:14:54;;;;;;;4.10;1.97;;;17.20;99.90;;;;;;5025226;28;20463;-47
2022/09/23 13:17:25;;;;;;;2.20;1.50;;;17.30;99.90;;;;;;5022209;28;20663;-47
2022/09/23 13:20:00;;;;;;;2.77;2.30;;;17.40;99.90;;;;;;5026433;28;21195;-48
2022/09/23 13:25:02;;;;;;;1.80;1.70;;;17.50;99.90;;;;;;5035286;28;20477;-52
2022/09/23 13:27:32;;;;;;;4.43;1.60;;;17.60;99.90;;;;;;5028140;28;20506;-51
2022/09/23 13:30:02;;;;;;;1.83;1.73;;;17.60;99.90;;;;;;5019667;28;20498;-51
2022/09/23 13:32:31;;;;;;;4.07;1.80;;;17.80;99.90;;;;;;5028503;28;20569;-47